createdAt,value
2018-01-20T00:00:17.983Z,0
2018-01-20T00:01:28.058Z,0
2018-01-20T00:02:37.846Z,0
2018-01-20T00:03:47.895Z,0
2018-01-20T00:04:57.684Z,0
2018-01-20T00:06:07.759Z,0
2018-01-20T00:07:17.835Z,0
2018-01-20T00:08:27.918Z,0
2018-01-20T00:09:37.980Z,0
2018-01-20T00:10:48.062Z,0
2018-01-20T00:11:58.193Z,0
2018-01-20T00:13:08.233Z,0
2018-01-20T00:14:18.318Z,0
2018-01-20T00:15:29.783Z,0
2018-01-20T00:16:39.851Z,0
2018-01-20T00:17:51.144Z,0
2018-01-20T00:19:01.200Z,0
2018-01-20T00:20:11.274Z,0
2018-01-20T00:21:21.336Z,0
2018-01-20T00:22:30.876Z,0
2018-01-20T00:23:40.932Z,0
2018-01-20T00:24:50.958Z,0
2018-01-20T00:26:01.041Z,0
2018-01-20T00:27:13.075Z,0
2018-01-20T00:28:23.133Z,0
2018-01-20T00:29:33.213Z,0
2018-01-20T00:30:43.271Z,0
2018-01-20T00:31:53.392Z,0
2018-01-20T00:33:03.460Z,0
2018-01-20T00:34:13.270Z,0
2018-01-20T00:35:23.335Z,0
2018-01-20T00:36:33.412Z,0
2018-01-20T00:37:44.389Z,0
2018-01-20T00:38:54.209Z,0
2018-01-20T00:40:04.022Z,0
2018-01-20T00:41:14.099Z,0
2018-01-20T00:42:24.152Z,0
2018-01-20T00:43:34.230Z,0
2018-01-20T00:44:44.298Z,0
2018-01-20T00:45:54.360Z,0
2018-01-20T00:47:04.807Z,0
2018-01-20T00:48:14.858Z,0
2018-01-20T00:49:24.760Z,0
2018-01-20T00:50:34.855Z,0
2018-01-20T00:51:44.653Z,0
2018-01-20T00:52:54.448Z,0
2018-01-20T00:54:04.245Z,0
2018-01-20T00:55:14.641Z,0
2018-01-20T00:56:24.452Z,0
2018-01-20T00:57:34.259Z,0
2018-01-20T00:58:44.289Z,0
2018-01-20T00:59:54.084Z,0
2018-01-20T01:01:04.168Z,0
2018-01-20T01:02:13.985Z,0
2018-01-20T01:03:24.043Z,0
2018-01-20T01:04:34.113Z,0
2018-01-20T01:05:44.709Z,0
2018-01-20T01:06:54.746Z,0
2018-01-20T01:08:04.521Z,0
2018-01-20T01:09:14.313Z,0
2018-01-20T01:10:24.392Z,0
2018-01-20T01:11:34.443Z,0
2018-01-20T01:12:44.490Z,0
2018-01-20T01:13:54.531Z,0
2018-01-20T01:15:05.574Z,0
2018-01-20T01:16:16.314Z,0
2018-01-20T01:17:26.363Z,0
2018-01-20T01:18:36.694Z,0
2018-01-20T01:19:46.741Z,0
2018-01-20T01:20:56.534Z,0
2018-01-20T01:22:06.970Z,0
2018-01-20T01:23:17.035Z,0
2018-01-20T01:24:26.827Z,0
2018-01-20T01:25:36.881Z,0
2018-01-20T01:26:46.658Z,0
2018-01-20T01:27:56.438Z,0
2018-01-20T01:29:06.480Z,0
2018-01-20T01:30:16.307Z,0
2018-01-20T01:31:26.348Z,0
2018-01-20T01:32:36.400Z,0
2018-01-20T01:33:58.919Z,0
2018-01-20T01:35:08.761Z,0
2018-01-20T01:36:18.824Z,0
2018-01-20T01:37:28.882Z,0
2018-01-20T01:38:38.944Z,0
2018-01-20T01:39:49.006Z,0
2018-01-20T01:40:59.056Z,0
2018-01-20T01:42:09.106Z,0
2018-01-20T01:43:19.167Z,0
2018-01-20T01:44:28.978Z,0
2018-01-20T01:45:38.522Z,0
2018-01-20T01:46:48.569Z,0
2018-01-20T01:47:58.602Z,0
2018-01-20T01:49:08.650Z,0
2018-01-20T01:50:18.457Z,0
2018-01-20T01:51:28.513Z,0
2018-01-20T01:52:38.805Z,0
2018-01-20T01:53:49.108Z,0
2018-01-20T01:54:59.418Z,0
2018-01-20T01:56:09.218Z,0
2018-01-20T01:57:18.767Z,0
2018-01-20T01:58:28.669Z,0
2018-01-20T01:59:38.727Z,0
2018-01-20T02:00:48.775Z,0
2018-01-20T02:01:58.565Z,0
2018-01-20T02:03:08.358Z,0
2018-01-20T02:04:18.456Z,0
2018-01-20T02:05:28.565Z,0
2018-01-20T02:06:38.611Z,0
2018-01-20T02:07:48.659Z,0
2018-01-20T02:08:58.455Z,0
2018-01-20T02:10:08.570Z,0
2018-01-20T02:11:18.631Z,0
2018-01-20T02:12:28.673Z,0
2018-01-20T02:13:38.747Z,0
2018-01-20T02:14:48.809Z,0
2018-01-20T02:15:58.597Z,0
2018-01-20T02:17:08.640Z,0
2018-01-20T02:18:18.434Z,0
2018-01-20T02:19:28.498Z,0
2018-01-20T02:20:38.552Z,0
2018-01-20T02:21:48.651Z,0
2018-01-20T02:22:58.171Z,0
2018-01-20T02:24:07.957Z,0
2018-01-20T02:25:17.989Z,0
2018-01-20T02:26:28.096Z,0
2018-01-20T02:27:38.147Z,0
2018-01-20T02:28:48.196Z,0
2018-01-20T02:29:58.243Z,0
2018-01-20T02:31:07.761Z,0
2018-01-20T02:32:17.812Z,0
2018-01-20T02:33:28.016Z,0
2018-01-20T02:34:38.075Z,0
2018-01-20T02:35:48.131Z,0
2018-01-20T02:36:58.186Z,0
2018-01-20T02:38:08.231Z,0
2018-01-20T02:39:18.305Z,0
2018-01-20T02:40:28.101Z,0
2018-01-20T02:41:37.899Z,0
2018-01-20T02:42:47.682Z,0
2018-01-20T02:43:57.720Z,0
2018-01-20T02:45:07.765Z,0
2018-01-20T02:46:17.815Z,0
2018-01-20T02:47:27.868Z,0
2018-01-20T02:48:37.651Z,0
2018-01-20T02:49:47.700Z,0
2018-01-20T02:50:57.800Z,0
2018-01-20T02:52:07.875Z,0
2018-01-20T02:53:17.942Z,0
2018-01-20T02:54:28.009Z,0
2018-01-20T02:55:37.801Z,0
2018-01-20T02:56:47.601Z,0
2018-01-20T02:57:57.644Z,0
2018-01-20T02:59:07.420Z,0
2018-01-20T03:00:17.442Z,0
2018-01-20T03:01:27.485Z,0
2018-01-20T03:02:37.518Z,0
2018-01-20T03:34:16.734Z,0
2018-01-20T03:35:26.780Z,0
2018-01-20T03:36:36.823Z,0
2018-01-20T03:37:46.393Z,0
2018-01-20T03:38:56.431Z,0
2018-01-20T03:40:06.518Z,0
2018-01-20T03:41:16.551Z,0
2018-01-20T03:42:26.593Z,0
2018-01-20T03:43:36.364Z,0
2018-01-20T03:44:46.151Z,0
2018-01-20T03:45:55.981Z,0
2018-01-20T03:47:06.015Z,0
2018-01-20T03:48:16.066Z,0
2018-01-20T03:49:26.103Z,0
2018-01-20T03:50:35.912Z,0
2018-01-20T03:51:45.978Z,0
2018-01-20T03:52:55.762Z,0
2018-01-20T03:54:05.798Z,0
2018-01-20T03:55:15.312Z,0
2018-01-20T03:56:25.362Z,0
2018-01-20T03:57:35.194Z,0
2018-01-20T03:58:45.246Z,0
2018-01-20T03:59:55.304Z,0
2018-01-20T04:01:05.117Z,0
2018-01-20T04:02:15.210Z,0
2018-01-20T04:03:25.262Z,0
2018-01-20T04:04:35.305Z,0
2018-01-20T04:05:45.366Z,0
2018-01-20T04:06:55.430Z,0
2018-01-20T04:08:05.478Z,0
2018-01-20T04:09:15.573Z,0
2018-01-20T04:10:25.622Z,0
2018-01-20T04:11:35.413Z,0
2018-01-20T04:12:45.476Z,0
2018-01-20T04:13:55.264Z,0
2018-01-20T04:15:05.356Z,0
2018-01-20T04:16:15.172Z,0
2018-01-20T04:17:24.944Z,0
2018-01-20T04:18:34.989Z,0
2018-01-20T04:19:45.028Z,0
2018-01-20T04:20:54.555Z,0
2018-01-20T04:22:04.085Z,0
2018-01-20T04:23:13.872Z,0
2018-01-20T04:24:23.898Z,0
2018-01-20T04:25:33.952Z,0
2018-01-20T04:26:43.998Z,0
2018-01-20T04:27:54.048Z,0
2018-01-20T04:29:04.091Z,0
2018-01-20T04:30:13.607Z,0
2018-01-20T04:31:23.665Z,0
2018-01-20T04:32:33.718Z,0
2018-01-20T04:33:43.511Z,0
2018-01-20T04:34:53.289Z,0
2018-01-20T04:36:03.062Z,0
2018-01-20T04:37:12.598Z,0
2018-01-20T04:38:22.375Z,0
2018-01-20T04:39:32.407Z,0
2018-01-20T04:40:42.184Z,0
2018-01-20T04:41:52.296Z,0
2018-01-20T04:43:02.334Z,0
2018-01-20T04:44:12.435Z,0
2018-01-20T04:45:22.497Z,0
2018-01-20T04:46:32.280Z,0
2018-01-20T04:47:42.714Z,0
2018-01-20T04:48:52.763Z,0
2018-01-20T04:50:02.557Z,0
2018-01-20T04:51:12.604Z,0
2018-01-20T04:52:22.647Z,0
2018-01-20T04:53:32.418Z,0
2018-01-20T04:54:41.687Z,0
2018-01-20T04:55:51.737Z,0
2018-01-20T04:57:01.788Z,0
2018-01-20T04:58:11.825Z,0
2018-01-20T04:59:21.602Z,0
2018-01-20T05:00:31.644Z,0
2018-01-20T05:01:41.738Z,0
2018-01-20T05:02:51.795Z,0
2018-01-20T05:04:01.841Z,0
2018-01-20T05:05:11.905Z,0
2018-01-20T05:06:21.940Z,0
2018-01-20T05:07:32.032Z,0
2018-01-20T05:08:42.100Z,0
2018-01-20T05:09:52.137Z,0
2018-01-20T05:11:02.174Z,0
2018-01-20T05:12:11.436Z,0
2018-01-20T05:13:21.224Z,0
2018-01-20T05:14:31.268Z,0
2018-01-20T05:15:41.042Z,4
2018-01-20T05:16:50.815Z,4
2018-01-20T05:18:00.863Z,4
2018-01-20T05:19:10.912Z,4
2018-01-20T05:20:20.962Z,4
2018-01-20T05:21:30.760Z,4
2018-01-20T05:22:40.858Z,4
2018-01-20T05:23:50.902Z,4
2018-01-20T05:25:00.984Z,4
2018-01-20T05:26:11.038Z,4
2018-01-20T05:27:21.074Z,4
2018-01-20T05:28:31.120Z,4
2018-01-20T05:29:41.161Z,4
2018-01-20T05:30:50.948Z,4
2018-01-20T05:32:00.982Z,4
2018-01-20T05:33:10.787Z,4
2018-01-20T05:34:20.850Z,4
2018-01-20T05:35:30.899Z,4
2018-01-20T05:36:40.943Z,4
2018-01-20T05:37:51.619Z,4
2018-01-20T05:39:01.668Z,4
2018-01-20T05:40:11.714Z,4
2018-01-20T05:41:21.765Z,4
2018-01-20T05:42:31.920Z,4
2018-01-20T05:43:41.949Z,4
2018-01-20T05:44:51.988Z,0
2018-01-20T05:46:01.768Z,0
2018-01-20T05:47:11.814Z,0
2018-01-20T05:48:21.896Z,0
2018-01-20T05:49:31.947Z,0
2018-01-20T05:50:41.998Z,0
2018-01-20T05:51:52.036Z,0
2018-01-20T05:53:02.080Z,0
2018-01-20T05:54:11.614Z,0
2018-01-20T05:55:21.384Z,0
2018-01-20T05:56:31.435Z,0
2018-01-20T05:57:41.474Z,0
2018-01-20T05:58:51.006Z,0
2018-01-20T06:00:00.793Z,0
2018-01-20T06:01:10.056Z,0
2018-01-20T06:02:19.842Z,0
2018-01-20T06:03:29.901Z,0
2018-01-20T06:04:41.044Z,0
2018-01-20T06:05:51.099Z,0
2018-01-20T06:07:00.893Z,0
2018-01-20T06:08:10.932Z,4
2018-01-20T06:09:20.721Z,4
2018-01-20T06:10:30.769Z,4
2018-01-20T06:11:40.553Z,4
2018-01-20T06:12:50.592Z,4
2018-01-20T06:14:00.129Z,0
2018-01-20T06:15:10.165Z,4
2018-01-20T06:16:20.204Z,4
2018-01-20T06:17:30.264Z,4
2018-01-20T06:18:40.350Z,8
2018-01-20T06:19:50.392Z,4
2018-01-20T06:21:00.440Z,8
2018-01-20T06:22:10.005Z,8
2018-01-20T06:23:19.818Z,8
2018-01-20T06:24:29.605Z,12
2018-01-20T06:25:39.659Z,12
2018-01-20T06:26:49.461Z,16
2018-01-20T06:27:59.520Z,24
2018-01-20T06:29:09.568Z,28
2018-01-20T06:30:19.626Z,36
2018-01-20T06:31:29.419Z,40
2018-01-20T06:32:39.193Z,44
2018-01-20T06:33:49.305Z,52
2018-01-20T06:34:59.405Z,56
2018-01-20T06:36:09.192Z,60
2018-01-20T06:37:19.244Z,68
2018-01-20T06:38:29.297Z,72
2018-01-20T06:39:39.350Z,80
2018-01-20T06:40:49.393Z,84
2018-01-20T06:41:59.166Z,96
2018-01-20T06:43:08.963Z,104
2018-01-20T06:44:19.024Z,112
2018-01-20T06:45:29.081Z,120
2018-01-20T06:46:38.668Z,128
2018-01-20T06:47:48.701Z,140
2018-01-20T06:48:58.750Z,156
2018-01-20T06:50:08.542Z,184
2018-01-20T06:51:18.583Z,232
2018-01-20T06:52:28.681Z,288
2018-01-20T06:53:38.481Z,312
2018-01-20T06:54:48.529Z,344
2018-01-20T06:55:58.566Z,384
2018-01-20T06:57:08.369Z,412
2018-01-20T06:58:18.201Z,424
2018-01-20T06:59:27.997Z,412
2018-01-20T07:00:37.778Z,392
2018-01-20T07:01:47.822Z,368
2018-01-20T07:02:57.618Z,380
2018-01-20T07:04:07.729Z,412
2018-01-20T07:05:17.783Z,456
2018-01-20T07:06:27.827Z,504
2018-01-20T07:07:37.607Z,564
2018-01-20T07:08:47.700Z,628
2018-01-20T07:09:57.765Z,692
2018-01-20T07:11:07.898Z,744
2018-01-20T07:12:17.946Z,792
2018-01-20T07:13:27.998Z,836
2018-01-20T07:14:38.058Z,864
2018-01-20T07:15:48.168Z,888
2018-01-20T07:16:58.226Z,924
2018-01-20T07:18:08.289Z,972
2018-01-20T07:19:18.346Z,1028
2018-01-20T07:20:28.155Z,1100
2018-01-20T07:21:37.931Z,1276
2018-01-20T07:22:47.707Z,1524
2018-01-20T07:23:57.769Z,1680
2018-01-20T07:25:07.557Z,1356
2018-01-20T07:26:17.707Z,1404
2018-01-20T07:27:27.768Z,2064
2018-01-20T07:28:37.822Z,2140
2018-01-20T07:29:47.934Z,2192
2018-01-20T07:30:57.738Z,2252
2018-01-20T07:32:07.524Z,2304
2018-01-20T07:33:17.368Z,2064
2018-01-20T07:34:27.409Z,2004
2018-01-20T07:35:37.465Z,1968
2018-01-20T07:36:47.263Z,2448
2018-01-20T07:37:57.339Z,2568
2018-01-20T07:39:07.459Z,2652
2018-01-20T07:40:17.500Z,2784
2018-01-20T07:41:27.035Z,2872
2018-01-20T07:42:36.825Z,2808
2018-01-20T07:43:46.624Z,2704
2018-01-20T07:44:56.731Z,2672
2018-01-20T07:46:06.778Z,2720
2018-01-20T07:47:16.844Z,2748
2018-01-20T07:48:26.690Z,2836
2018-01-20T07:49:36.732Z,2920
2018-01-20T07:50:46.837Z,2528
2018-01-20T07:51:56.640Z,1928
2018-01-20T07:53:06.746Z,1776
2018-01-20T07:54:16.795Z,1924
2018-01-20T07:55:26.588Z,2656
2018-01-20T07:56:36.640Z,2392
2018-01-20T07:57:46.430Z,3340
2018-01-20T07:58:55.951Z,3392
2018-01-20T08:00:06.448Z,3432
2018-01-20T08:01:17.372Z,3384
2018-01-20T08:02:27.429Z,3144
2018-01-20T08:03:37.209Z,1944
2018-01-20T08:04:47.256Z,2040
2018-01-20T08:05:57.304Z,2772
2018-01-20T08:07:07.374Z,3108
2018-01-20T08:08:17.180Z,3304
2018-01-20T08:09:26.969Z,3332
2018-01-20T08:10:36.780Z,3364
2018-01-20T08:11:46.574Z,3404
2018-01-20T08:12:56.624Z,3460
2018-01-20T08:14:06.235Z,3504
2018-01-20T08:15:16.277Z,3524
2018-01-20T08:16:26.137Z,3544
2018-01-20T08:17:36.185Z,3576
2018-01-20T08:18:46.232Z,3620
2018-01-20T08:19:56.020Z,3656
2018-01-20T08:21:06.068Z,3728
2018-01-20T08:22:16.149Z,3816
2018-01-20T08:23:26.198Z,3888
2018-01-20T08:24:36.258Z,3916
2018-01-20T08:25:46.413Z,3896
2018-01-20T08:26:56.518Z,3888
2018-01-20T08:28:06.566Z,3872
2018-01-20T08:29:16.603Z,3892
2018-01-20T08:30:26.659Z,3936
2018-01-20T08:31:36.498Z,3944
2018-01-20T08:32:46.552Z,3976
2018-01-20T08:33:56.335Z,4012
2018-01-20T08:35:06.137Z,4044
2018-01-20T08:36:15.992Z,4084
2018-01-20T08:37:26.341Z,4100
2018-01-20T08:38:36.403Z,4180
2018-01-20T08:39:46.544Z,4212
2018-01-20T08:40:56.345Z,4256
2018-01-20T08:42:06.148Z,4292
2018-01-20T08:43:15.952Z,4336
2018-01-20T08:44:26.013Z,4404
2018-01-20T08:45:36.063Z,4476
2018-01-20T08:46:46.120Z,4560
2018-01-20T08:47:55.923Z,4592
2018-01-20T08:49:06.078Z,4660
2018-01-20T08:50:15.891Z,4724
2018-01-20T08:51:25.441Z,4112
2018-01-20T08:52:35.498Z,3500
2018-01-20T08:53:45.295Z,3416
2018-01-20T08:54:55.668Z,3376
2018-01-20T08:56:05.722Z,3120
2018-01-20T08:57:16.664Z,3164
2018-01-20T08:58:26.514Z,4568
2018-01-20T08:59:36.594Z,4684
2018-01-20T09:00:47.414Z,4708
2018-01-20T09:01:57.550Z,4748
2018-01-20T09:03:07.353Z,4732
2018-01-20T09:04:16.885Z,4476
2018-01-20T09:05:26.929Z,4424
2018-01-20T09:06:36.726Z,4432
2018-01-20T09:07:46.771Z,3248
2018-01-20T09:08:56.837Z,2732
2018-01-20T09:10:06.885Z,2300
2018-01-20T09:11:17.957Z,2680
2018-01-20T09:12:27.761Z,2872
2018-01-20T09:13:37.805Z,2980
2018-01-20T09:14:47.886Z,3800
2018-01-20T09:15:57.670Z,3804
2018-01-20T09:17:07.726Z,4576
2018-01-20T09:18:17.831Z,4660
2018-01-20T09:19:27.858Z,4460
2018-01-20T09:20:37.666Z,5208
2018-01-20T09:21:47.716Z,5392
2018-01-20T09:22:57.758Z,5464
2018-01-20T09:24:07.672Z,5528
2018-01-20T09:25:17.761Z,5608
2018-01-20T09:26:27.570Z,5756
2018-01-20T09:27:36.835Z,5888
2018-01-20T09:28:46.633Z,5980
2018-01-20T09:29:56.786Z,6084
2018-01-20T09:31:08.206Z,6216
2018-01-20T09:32:18.004Z,6316
2018-01-20T09:33:28.040Z,6392
2018-01-20T09:34:38.098Z,6456
2018-01-20T09:35:48.155Z,6540
2018-01-20T09:36:58.211Z,6600
2018-01-20T09:38:08.252Z,6608
2018-01-20T09:39:18.311Z,6636
2018-01-20T09:40:28.366Z,6552
2018-01-20T09:41:38.424Z,6596
2018-01-20T09:42:48.534Z,6556
2018-01-20T09:43:58.625Z,6552
2018-01-20T09:45:08.678Z,6516
2018-01-20T09:46:18.719Z,6528
2018-01-20T09:47:28.817Z,6516
2018-01-20T09:48:38.878Z,6500
2018-01-20T09:49:48.922Z,6508
2018-01-20T09:50:58.985Z,6528
2018-01-20T09:52:08.779Z,6288
2018-01-20T09:53:18.817Z,6156
2018-01-20T09:54:30.042Z,6344
2018-01-20T09:55:40.107Z,6508
2018-01-20T09:56:50.189Z,6520
2018-01-20T09:57:59.978Z,6640
2018-01-20T09:59:10.046Z,6740
2018-01-20T10:00:20.116Z,6844
2018-01-20T10:01:30.827Z,5024
2018-01-20T10:02:40.623Z,6820
2018-01-20T10:03:50.678Z,6664
2018-01-20T10:05:00.820Z,6192
2018-01-20T10:06:10.642Z,6796
2018-01-20T10:07:20.721Z,7088
2018-01-20T10:08:30.773Z,6672
2018-01-20T10:09:40.867Z,6900
2018-01-20T10:10:50.706Z,7000
2018-01-20T10:12:00.488Z,7128
2018-01-20T10:13:10.548Z,7304
2018-01-20T10:14:20.691Z,7276
2018-01-20T10:15:30.251Z,6948
2018-01-20T10:16:40.363Z,7764
2018-01-20T10:17:49.912Z,7788
2018-01-20T10:18:59.969Z,7820
2018-01-20T10:20:10.043Z,7784
2018-01-20T10:21:19.580Z,7672
2018-01-20T10:22:29.168Z,7632
2018-01-20T10:23:39.221Z,7492
2018-01-20T10:24:49.017Z,7368
2018-01-20T10:25:59.144Z,7236
2018-01-20T10:27:09.221Z,7072
2018-01-20T10:28:19.302Z,7116
2018-01-20T10:29:29.094Z,7156
2018-01-20T10:30:39.158Z,7092
2018-01-20T10:31:49.211Z,6968
2018-01-20T10:32:59.261Z,6960
2018-01-20T10:34:09.349Z,6920
2018-01-20T10:35:19.392Z,6944
2018-01-20T10:36:29.189Z,6960
2018-01-20T10:37:38.962Z,6992
2018-01-20T10:38:48.762Z,7144
2018-01-20T10:39:58.639Z,7300
2018-01-20T10:41:08.714Z,7424
2018-01-20T10:42:18.763Z,7500
2018-01-20T10:43:28.842Z,3568
2018-01-20T10:44:38.956Z,3648
2018-01-20T10:45:49.093Z,3504
2018-01-20T10:46:58.656Z,3468
2018-01-20T10:48:08.762Z,3496
2018-01-20T10:49:18.843Z,3532
2018-01-20T10:50:28.941Z,3772
2018-01-20T10:51:38.805Z,3792
2018-01-20T10:52:48.959Z,3644
2018-01-20T10:53:59.010Z,3816
2018-01-20T10:55:09.099Z,4072
2018-01-20T10:56:18.896Z,4936
2018-01-20T10:57:29.025Z,4288
2018-01-20T10:58:38.835Z,4424
2018-01-20T10:59:48.901Z,4448
2018-01-20T11:00:58.962Z,4516
2018-01-20T11:02:09.017Z,4656
2018-01-20T11:03:19.095Z,4532
2018-01-20T11:04:29.161Z,4308
2018-01-20T11:05:39.215Z,4144
2018-01-20T11:06:49.032Z,3808
2018-01-20T11:07:59.087Z,3532
2018-01-20T11:09:08.926Z,3448
2018-01-20T11:10:19.013Z,3400
2018-01-20T11:11:29.082Z,3384
2018-01-20T11:12:38.613Z,3348
2018-01-20T11:13:48.694Z,3236
2018-01-20T11:14:58.813Z,2868
2018-01-20T11:16:08.918Z,2512
2018-01-20T11:17:18.965Z,2436
2018-01-20T11:18:29.014Z,2480
2018-01-20T11:19:39.150Z,2532
2018-01-20T11:20:49.216Z,2656
2018-01-20T11:21:59.289Z,2848
2018-01-20T11:23:09.140Z,2816
2018-01-20T11:24:19.213Z,2560
2018-01-20T11:25:29.271Z,2380
2018-01-20T11:26:40.543Z,2244
2018-01-20T11:27:50.335Z,2160
2018-01-20T11:29:00.128Z,2136
2018-01-20T11:30:10.211Z,2188
2018-01-20T11:31:20.274Z,2400
2018-01-20T11:32:30.398Z,2544
2018-01-20T11:33:40.466Z,2600
2018-01-20T11:34:50.530Z,2708
2018-01-20T11:36:00.585Z,2972
2018-01-20T11:37:10.658Z,3208
2018-01-20T11:38:21.188Z,3360
2018-01-20T11:39:31.040Z,3516
2018-01-20T11:40:40.839Z,3644
2018-01-20T11:41:50.902Z,3700
2018-01-20T11:43:00.697Z,3528
2018-01-20T11:44:10.808Z,3180
2018-01-20T11:45:20.605Z,2872
2018-01-20T11:46:30.682Z,2604
2018-01-20T11:47:40.745Z,2472
2018-01-20T11:48:50.812Z,2484
2018-01-20T11:50:00.913Z,2644
2018-01-20T11:51:10.987Z,2912
2018-01-20T11:52:20.809Z,3140
2018-01-20T11:53:30.635Z,3300
2018-01-20T11:54:40.450Z,3480
2018-01-20T11:55:50.361Z,3540
2018-01-20T11:57:00.199Z,3444
2018-01-20T11:58:10.002Z,3184
2018-01-20T11:59:20.080Z,2968
2018-01-20T12:00:30.150Z,2804
2018-01-20T12:01:40.203Z,2720
2018-01-20T12:02:50.277Z,2700
2018-01-20T12:04:00.389Z,2712
2018-01-20T12:05:10.465Z,2756
2018-01-20T12:06:20.275Z,2804
2018-01-20T12:07:31.744Z,2792
2018-01-20T12:08:41.811Z,2704
2018-01-20T12:09:52.225Z,2556
2018-01-20T12:11:03.236Z,2400
2018-01-20T12:12:13.351Z,2288
2018-01-20T12:13:23.515Z,2304
2018-01-20T12:14:33.573Z,2380
2018-01-20T12:15:43.384Z,2364
2018-01-20T12:16:53.199Z,2216
2018-01-20T12:18:03.318Z,2060
2018-01-20T12:19:13.435Z,1964
2018-01-20T12:20:23.537Z,1920
2018-01-20T12:21:33.073Z,1904
2018-01-20T12:22:43.170Z,1880
2018-01-20T12:23:53.148Z,1872
2018-01-20T12:25:02.726Z,1868
2018-01-20T12:26:12.795Z,1876
2018-01-20T12:27:23.164Z,1916
2018-01-20T12:28:33.341Z,1948
2018-01-20T12:29:43.409Z,1952
2018-01-20T12:30:53.578Z,1928
2018-01-20T12:32:03.435Z,1868
2018-01-20T12:33:13.292Z,1780
2018-01-20T12:34:23.472Z,1676
2018-01-20T12:35:33.642Z,1608
2018-01-20T12:36:43.746Z,1584
2018-01-20T12:37:53.829Z,1580
2018-01-20T12:39:03.977Z,1540
2018-01-20T12:40:14.070Z,1500
2018-01-20T12:41:24.157Z,1464
2018-01-20T12:42:34.224Z,1412
2018-01-20T12:43:44.346Z,1332
2018-01-20T12:44:54.419Z,1252
2018-01-20T12:46:04.480Z,1188
2018-01-20T12:47:14.274Z,1148
2018-01-20T12:48:24.351Z,1124
2018-01-20T12:49:34.468Z,1108
2018-01-20T12:50:44.319Z,1116
2018-01-20T12:51:54.393Z,1128
2018-01-20T12:53:04.472Z,1132
2018-01-20T12:54:15.161Z,1132
2018-01-20T12:55:24.992Z,1124
2018-01-20T12:56:35.094Z,1132
2018-01-20T12:57:45.170Z,1104
2018-01-20T12:58:55.226Z,1028
2018-01-20T13:00:05.292Z,944
2018-01-20T13:01:15.346Z,916
2018-01-20T13:02:25.415Z,916
2018-01-20T13:03:35.470Z,812
2018-01-20T13:04:46.128Z,756
2018-01-20T13:05:56.213Z,808
2018-01-20T13:07:06.286Z,888
2018-01-20T13:08:16.534Z,900
2018-01-20T13:09:26.606Z,832
2018-01-20T13:10:36.793Z,712
2018-01-20T13:11:46.853Z,560
2018-01-20T13:13:11.559Z,416
2018-01-20T13:14:21.623Z,356
2018-01-20T13:15:31.688Z,356
2018-01-20T13:16:41.760Z,356
2018-01-20T13:17:51.870Z,324
2018-01-20T13:19:01.936Z,344
2018-01-20T13:20:11.996Z,432
2018-01-20T13:21:21.538Z,644
2018-01-20T13:22:31.582Z,748
2018-01-20T13:23:42.326Z,908
2018-01-20T13:24:52.370Z,1128
2018-01-20T13:26:02.233Z,1236
2018-01-20T13:27:12.281Z,1268
2018-01-20T13:28:22.343Z,1204
2018-01-20T13:29:33.108Z,1052
2018-01-20T13:30:43.174Z,916
2018-01-20T13:31:53.240Z,788
2018-01-20T13:33:04.070Z,740
2018-01-20T13:34:14.191Z,712
2018-01-20T13:35:24.259Z,720
2018-01-20T13:36:34.333Z,728
2018-01-20T13:37:44.443Z,728
2018-01-20T13:38:54.259Z,792
2018-01-20T13:40:04.320Z,804
2018-01-20T13:41:14.391Z,768
2018-01-20T13:42:23.941Z,788
2018-01-20T13:43:33.740Z,848
2018-01-20T13:44:45.044Z,940
2018-01-20T13:45:56.212Z,1036
2018-01-20T13:47:06.274Z,1164
2018-01-20T13:48:16.071Z,1244
2018-01-20T13:49:26.128Z,1248
2018-01-20T13:50:36.245Z,1204
2018-01-20T13:51:46.055Z,1212
2018-01-20T13:52:56.254Z,1228
2018-01-20T13:54:06.302Z,1292
2018-01-20T13:55:15.853Z,1320
2018-01-20T13:56:25.657Z,1300
2018-01-20T13:57:35.711Z,1264
2018-01-20T13:58:45.811Z,1256
2018-01-20T13:59:55.867Z,1252
2018-01-20T14:01:05.933Z,1280
2018-01-20T14:02:15.735Z,1332
2018-01-20T14:03:25.810Z,1336
2018-01-20T14:04:35.614Z,1300
2018-01-20T14:05:45.666Z,1284
2018-01-20T14:06:55.437Z,1236
2018-01-20T14:08:05.474Z,1184
2018-01-20T14:09:15.282Z,1156
2018-01-20T14:10:25.389Z,1184
2018-01-20T14:11:35.476Z,1336
2018-01-20T14:12:45.557Z,1520
2018-01-20T14:13:55.625Z,1820
2018-01-20T14:15:05.692Z,1840
2018-01-20T14:16:15.748Z,1992
2018-01-20T14:17:25.866Z,2332
2018-01-20T14:18:35.926Z,2296
2018-01-20T14:19:45.990Z,2860
2018-01-20T14:20:56.064Z,3208
2018-01-20T14:22:06.280Z,2944
2018-01-20T14:23:16.348Z,2960
2018-01-20T14:24:26.140Z,2548
2018-01-20T14:25:35.930Z,2468
2018-01-20T14:26:45.997Z,2408
2018-01-20T14:27:56.145Z,2500
2018-01-20T14:29:06.230Z,2080
2018-01-20T14:30:16.296Z,2004
2018-01-20T14:31:26.373Z,1708
2018-01-20T14:32:36.482Z,1668
2018-01-20T14:33:46.591Z,1612
2018-01-20T14:34:57.363Z,1664
2018-01-20T14:36:07.187Z,1536
2018-01-20T14:37:17.258Z,1448
2018-01-20T14:38:27.313Z,1448
2018-01-20T14:39:37.455Z,1508
2018-01-20T14:40:47.266Z,1544
2018-01-20T14:41:57.335Z,1692
2018-01-20T14:43:07.133Z,1588
2018-01-20T14:44:17.203Z,1596
2018-01-20T14:45:27.302Z,1596
2018-01-20T14:46:37.376Z,1560
2018-01-20T14:47:47.437Z,1512
2018-01-20T14:48:57.506Z,1452
2018-01-20T14:50:07.574Z,1368
2018-01-20T14:51:17.630Z,1252
2018-01-20T14:52:28.100Z,1148
2018-01-20T14:53:38.589Z,1092
2018-01-20T14:54:49.189Z,1048
2018-01-20T14:55:59.291Z,976
2018-01-20T14:57:09.148Z,924
2018-01-20T14:58:18.430Z,852
2018-01-20T14:59:28.525Z,796
2018-01-20T15:00:40.138Z,744
2018-01-20T15:01:50.190Z,688
2018-01-20T15:03:00.306Z,648
2018-01-20T15:04:10.351Z,628
2018-01-20T15:05:20.420Z,604
2018-01-20T15:06:30.497Z,580
2018-01-20T15:07:40.566Z,548
2018-01-20T15:08:50.649Z,520
2018-01-20T15:10:00.711Z,504
2018-01-20T15:11:10.794Z,496
2018-01-20T15:12:20.602Z,476
2018-01-20T15:13:30.672Z,460
2018-01-20T15:14:40.770Z,432
2018-01-20T15:15:51.781Z,404
2018-01-20T15:17:01.846Z,384
2018-01-20T15:18:11.884Z,360
2018-01-20T15:19:21.979Z,336
2018-01-20T15:20:31.827Z,308
2018-01-20T15:21:41.639Z,280
2018-01-20T15:22:51.433Z,252
2018-01-20T15:24:01.227Z,224
2018-01-20T15:25:11.315Z,204
2018-01-20T15:26:21.367Z,184
2018-01-20T15:27:31.166Z,164
2018-01-20T15:28:41.214Z,144
2018-01-20T15:29:51.312Z,128
2018-01-20T15:31:01.107Z,116
2018-01-20T15:32:11.220Z,100
2018-01-20T15:33:21.014Z,92
2018-01-20T15:34:30.810Z,84
2018-01-20T15:35:41.558Z,76
2018-01-20T15:36:51.623Z,72
2018-01-20T15:38:01.521Z,64
2018-01-20T15:39:11.681Z,56
2018-01-20T15:40:21.487Z,52
2018-01-20T15:41:32.305Z,44
2018-01-20T15:42:42.096Z,40
2018-01-20T15:43:52.217Z,32
2018-01-20T15:45:02.276Z,28
2018-01-20T15:46:12.359Z,24
2018-01-20T15:47:22.171Z,20
2018-01-20T15:48:32.232Z,20
2018-01-20T15:49:42.293Z,12
2018-01-20T15:50:53.709Z,12
2018-01-20T15:52:03.781Z,12
2018-01-20T15:53:13.597Z,8
2018-01-20T15:54:23.663Z,8
2018-01-20T15:55:33.795Z,4
2018-01-20T15:56:43.857Z,4
2018-01-20T15:57:53.912Z,4
2018-01-20T15:59:04.017Z,4
2018-01-20T16:00:14.063Z,4
2018-01-20T16:01:24.162Z,0
2018-01-20T16:02:34.229Z,4
2018-01-20T16:03:44.280Z,4
2018-01-20T16:04:54.354Z,0
2018-01-20T16:06:04.414Z,0
2018-01-20T16:07:14.556Z,0
2018-01-20T16:08:24.624Z,0
2018-01-20T16:09:34.692Z,0
2018-01-20T16:10:44.747Z,0
2018-01-20T16:11:54.808Z,0
2018-01-20T16:13:04.974Z,0
2018-01-20T16:14:15.030Z,0
2018-01-20T16:15:24.588Z,0
2018-01-20T16:16:34.669Z,0
2018-01-20T16:17:44.724Z,0
2018-01-20T16:18:54.273Z,0
2018-01-20T16:20:04.323Z,0
2018-01-20T16:21:14.420Z,0
2018-01-20T16:22:24.471Z,0
2018-01-20T16:23:34.271Z,0
2018-01-20T16:24:44.339Z,0
2018-01-20T16:25:54.176Z,0
2018-01-20T16:27:04.301Z,0
2018-01-20T16:28:14.384Z,0
2018-01-20T16:29:23.988Z,0
2018-01-20T16:30:34.104Z,0
2018-01-20T16:31:43.900Z,0
2018-01-20T16:32:53.721Z,0
2018-01-20T16:34:03.807Z,0
2018-01-20T16:35:13.870Z,0
2018-01-20T16:36:23.978Z,0
2018-01-20T16:37:34.036Z,0
2018-01-20T16:38:43.845Z,0
2018-01-20T16:39:53.923Z,0
2018-01-20T16:41:03.986Z,0
2018-01-20T16:42:14.107Z,0
2018-01-20T16:43:24.188Z,0
2018-01-20T16:44:34.259Z,0
2018-01-20T16:45:44.064Z,0
2018-01-20T16:46:54.140Z,0
2018-01-20T16:48:03.999Z,0
2018-01-20T16:49:14.148Z,0
2018-01-20T16:50:23.954Z,0